Time;durP1;ratioP1;P1;durP2;ratioP2;P2;SDS_P1;SDS_P2;PMS_P1;PMS_P2;Temp;Humidity;BMP_temperature;BMP_pressure;BME280_temperature;BME280_humidity;BME280_pressure;Samples;Min_cycle;Max_cycle;Signal;HPM_P1;HPM_P2
2023/04/27 00:01:10;;;;;;;0.50;0.50;;;;;;;4.95;55.57;99877.56;5025548;28;20049;-71
2023/04/27 00:03:35;;;;;;;0.40;0.40;;;;;;;5.02;55.61;99887.88;5024183;28;20041;-70
2023/04/27 00:06:00;;;;;;;0.50;0.50;;;;;;;5.06;55.68;99895.63;5025875;28;20022;-70
2023/04/27 00:08:26;;;;;;;0.40;0.40;;;;;;;5.06;55.77;99894.78;5025303;28;20386;-70
2023/04/27 00:10:51;;;;;;;1.13;1.13;;;;;;;4.98;56.32;99893.88;5025919;28;20021;-70
2023/04/27 00:13:17;;;;;;;0.50;0.50;;;;;;;5.01;56.17;99883.59;5025549;28;20014;-69
2023/04/27 00:15:44;;;;;;;0.50;0.50;;;;;;;4.99;56.17;99887.88;5024390;28;20113;-70
2023/04/27 00:18:09;;;;;;;0.50;0.50;;;;;;;4.96;56.12;99891.28;5025350;28;20089;-69
2023/04/27 00:20:35;;;;;;;0.40;0.40;;;;;;;4.95;56.31;99894.72;5025534;28;20077;-71
2023/04/27 00:23:00;;;;;;;0.50;0.50;;;;;;;4.93;56.20;99899.00;5023589;28;20026;-70
2023/04/27 00:25:26;;;;;;;0.30;0.30;;;;;;;4.91;56.09;99901.56;5024042;28;20064;-70
2023/04/27 00:27:51;;;;;;;0.50;0.50;;;;;;;4.90;55.72;99902.41;5025427;28;20028;-70
2023/04/27 00:30:17;;;;;;;0.40;0.40;;;;;;;4.85;55.65;99896.38;5025221;28;20048;-70
2023/04/27 00:32:42;;;;;;;0.50;0.50;;;;;;;4.82;55.76;99893.78;5025246;28;20085;-70
2023/04/27 00:35:08;;;;;;;0.45;0.45;;;;;;;4.83;55.56;99896.38;5022954;28;20029;-69
2023/04/27 00:37:34;;;;;;;0.57;0.57;;;;;;;4.85;55.54;99896.38;5025424;28;20022;-69
2023/04/27 00:40:00;;;;;;;0.40;0.40;;;;;;;4.84;55.58;99897.22;5024730;28;20032;-70
2023/04/27 00:42:25;;;;;;;0.40;0.40;;;;;;;4.83;55.48;99905.78;5024979;28;20056;-70
2023/04/27 00:44:51;;;;;;;0.40;0.40;;;;;;;4.78;55.22;99899.72;5025345;28;20021;-70
2023/04/27 00:47:16;;;;;;;0.50;0.50;;;;;;;4.75;55.17;99892.88;5024856;28;20026;-71
2023/04/27 00:49:43;;;;;;;0.40;0.40;;;;;;;4.71;54.83;99899.69;5025170;28;20092;-70
2023/04/27 00:52:09;;;;;;;0.40;0.40;;;;;;;4.74;54.91;99900.56;5025142;28;20022;-69
2023/04/27 00:54:35;;;;;;;0.50;0.50;;;;;;;4.75;55.12;99902.28;5024944;28;20504;-70
2023/04/27 00:57:01;;;;;;;0.50;0.50;;;;;;;4.65;55.29;99894.50;5024827;28;20034;-70
2023/04/27 00:59:27;;;;;;;0.43;0.43;;;;;;;4.69;55.38;99898.84;5023566;28;20072;-70
2023/04/27 01:01:53;;;;;;;0.50;0.50;;;;;;;4.70;55.38;99913.41;5024648;28;20041;-70
2023/04/27 01:04:20;;;;;;;0.43;0.43;;;;;;;4.70;55.38;99895.41;5025048;28;20093;-71
2023/04/27 01:06:45;;;;;;;0.50;0.50;;;;;;;4.67;55.33;99900.53;5024963;28;20056;-70
2023/04/27 01:09:11;;;;;;;0.50;0.50;;;;;;;4.68;55.34;99907.38;5024555;28;20026;-69
2023/04/27 01:11:36;;;;;;;0.40;0.40;;;;;;;4.57;55.38;99893.56;5023593;28;20029;-69
2023/04/27 01:14:06;;;;;;;0.40;0.40;;;;;;;4.61;55.44;99910.78;5027612;28;20064;-70
2023/04/27 01:16:36;;;;;;;0.40;0.40;;;;;;;4.58;55.22;99903.88;5027659;28;20103;-70
2023/04/27 01:19:01;;;;;;;0.40;0.40;;;;;;;4.52;55.21;99906.41;5027600;28;20026;-70
2023/04/27 01:21:26;;;;;;;0.40;0.40;;;;;;;4.49;55.67;99903.81;5028777;28;20088;-70
2023/04/27 01:23:53;;;;;;;0.50;0.50;;;;;;;4.44;55.64;99911.47;5043658;28;20026;-70
2023/04/27 01:26:18;;;;;;;0.50;0.50;;;;;;;4.40;55.66;99904.59;5027751;28;20025;-70
2023/04/27 01:28:44;;;;;;;0.45;0.45;;;;;;;4.37;55.86;99903.69;5028383;28;20036;-69
2023/04/27 01:31:10;;;;;;;0.50;0.50;;;;;;;4.35;55.63;99901.13;5028604;28;20037;-70
2023/04/27 01:33:36;;;;;;;0.40;0.40;;;;;;;4.33;56.13;99898.53;5028599;28;20025;-70
2023/04/27 01:36:02;;;;;;;0.50;0.50;;;;;;;4.32;55.96;99895.94;5026730;28;20021;-70
2023/04/27 01:38:28;;;;;;;1.65;1.63;;;;;;;4.37;56.04;99901.13;5028189;28;20098;-70
2023/04/27 01:41:00;;;;;;;0.50;0.50;;;;;;;4.30;56.01;99893.38;5028307;28;20033;-71
2023/04/27 01:43:26;;;;;;;0.50;0.50;;;;;;;4.32;56.12;99906.22;5027792;28;20026;-70
2023/04/27 01:45:52;;;;;;;0.50;0.50;;;;;;;4.31;56.16;99896.81;5028360;28;20044;-70
2023/04/27 01:48:17;;;;;;;0.43;0.43;;;;;;;4.34;56.52;99899.41;5027993;28;20050;-70
2023/04/27 01:50:43;;;;;;;0.50;0.50;;;;;;;4.33;56.45;99900.22;5027935;28;20026;-68
2023/04/27 01:53:08;;;;;;;0.50;0.50;;;;;;;4.29;56.73;99894.22;5028137;28;20079;-68
2023/04/27 01:55:34;;;;;;;0.50;0.50;;;;;;;4.37;56.82;99896.88;5028130;28;20032;-70
2023/04/27 01:57:59;;;;;;;0.45;0.45;;;;;;;4.37;56.65;99903.69;5028251;28;20034;-70
2023/04/27 02:00:25;;;;;;;0.40;0.40;;;;;;;4.40;56.53;99890.88;5027838;28;20028;-70
2023/04/27 02:02:52;;;;;;;0.50;0.50;;;;;;;4.37;56.55;99898.56;5028004;28;20029;-69
2023/04/27 02:05:18;;;;;;;0.38;0.38;;;;;;;4.38;56.58;99897.72;5027152;28;20164;-69
2023/04/27 02:07:43;;;;;;;0.50;0.50;;;;;;;4.35;56.47;99888.28;5027990;28;20037;-70
2023/04/27 02:10:09;;;;;;;0.40;0.40;;;;;;;4.42;56.53;99895.19;5027925;28;20022;-69
2023/04/27 02:12:35;;;;;;;0.50;0.50;;;;;;;4.46;56.50;99896.94;5028046;28;20018;-71
2023/04/27 02:15:02;;;;;;;0.40;0.40;;;;;;;4.49;56.43;99895.25;5027645;28;20026;-70
2023/04/27 02:17:28;;;;;;;0.40;0.40;;;;;;;4.49;56.32;99898.66;5027707;28;20018;-69
2023/04/27 02:19:53;;;;;;;0.45;0.45;;;;;;;4.48;56.59;99896.94;5026233;28;20060;-70
2023/04/27 02:22:18;;;;;;;0.40;0.40;;;;;;;4.52;56.59;99892.69;5026792;28;20022;-69
2023/04/27 02:24:44;;;;;;;0.43;0.43;;;;;;;4.48;56.64;99894.38;5026756;28;20076;-70
2023/04/27 02:27:10;;;;;;;0.50;0.50;;;;;;;4.49;56.55;99901.22;5027331;28;20037;-70
2023/04/27 02:29:37;;;;;;;0.40;0.40;;;;;;;4.49;56.62;99905.53;5027351;28;20026;-69
2023/04/27 02:32:05;;;;;;;0.40;0.40;;;;;;;4.43;56.71;99893.47;5027629;28;20078;-71
2023/04/27 02:34:30;;;;;;;0.50;0.50;;;;;;;4.40;56.33;99888.31;5027261;28;20029;-70
2023/04/27 02:36:55;;;;;;;0.50;0.50;;;;;;;4.38;55.80;99890.88;5025809;28;20022;-72
2023/04/27 02:39:21;;;;;;;0.50;0.50;;;;;;;4.47;55.45;99901.22;5042657;28;20068;-69
2023/04/27 02:41:46;;;;;;;0.40;0.40;;;;;;;4.47;55.47;99911.50;5027242;28;20082;-69
2023/04/27 02:44:12;;;;;;;0.70;0.70;;;;;;;4.48;55.50;99909.81;5027255;28;20032;-70
2023/04/27 02:46:37;;;;;;;0.50;0.50;;;;;;;4.55;55.14;99908.16;5026943;28;20125;-70
2023/04/27 02:49:02;;;;;;;0.40;0.40;;;;;;;4.55;55.28;99897.88;5026583;28;20072;-69
2023/04/27 02:51:28;;;;;;;0.40;0.40;;;;;;;4.57;55.57;99906.44;5026982;28;20036;-69
2023/04/27 02:53:53;;;;;;;0.50;0.50;;;;;;;4.57;55.67;99903.88;5025841;28;20235;-69
2023/04/27 02:56:19;;;;;;;0.50;0.50;;;;;;;4.49;56.13;99905.53;5026587;28;20022;-71
2023/04/27 02:58:44;;;;;;;0.50;0.50;;;;;;;4.45;56.56;99905.50;5026898;28;20243;-69
2023/04/27 03:01:10;;;;;;;0.40;0.40;;;;;;;4.42;56.90;99908.06;5026515;28;20049;-69
2023/04/27 03:03:36;;;;;;;0.57;0.57;;;;;;;4.40;57.20;99899.47;5025511;28;20470;-69
2023/04/27 03:06:02;;;;;;;0.50;0.50;;;;;;;4.40;57.28;99903.72;5026684;28;20018;-70
2023/04/27 03:08:27;;;;;;;0.50;0.50;;;;;;;4.37;57.68;99904.56;5041474;28;20022;-69
2023/04/27 03:10:53;;;;;;;0.50;0.50;;;;;;;4.42;57.68;99909.75;5025551;28;20124;-71
2023/04/27 03:13:18;;;;;;;0.50;0.50;;;;;;;4.44;57.77;99915.78;5025292;28;20022;-70
2023/04/27 03:15:44;;;;;;;0.50;0.50;;;;;;;4.47;57.55;99908.94;5026411;28;20032;-70
2023/04/27 03:18:10;;;;;;;0.50;0.50;;;;;;;4.46;57.56;99907.22;5025684;28;20102;-69
2023/04/27 03:20:35;;;;;;;0.50;0.50;;;;;;;4.47;57.45;99911.50;5025836;28;20030;-70
2023/04/27 03:23:01;;;;;;;0.50;0.50;;;;;;;4.46;57.43;99908.91;5026436;28;20046;-71
2023/04/27 03:25:26;;;;;;;0.50;0.50;;;;;;;4.54;57.01;99906.41;5026361;28;20093;-70
2023/04/27 03:27:51;;;;;;;0.50;0.50;;;;;;;4.45;57.30;99920.06;5025304;28;20529;-70
2023/04/27 03:30:17;;;;;;;0.50;0.50;;;;;;;4.40;57.32;99911.44;5025353;28;20030;-70
2023/04/27 03:32:42;;;;;;;0.40;0.40;;;;;;;4.31;57.45;99918.22;5026142;28;20049;-70
2023/04/27 03:35:08;;;;;;;1.35;1.20;;;;;;;4.26;57.74;99924.16;5026288;28;20135;-70
2023/04/27 03:37:34;;;;;;;0.40;0.40;;;;;;;4.28;57.71;99922.47;5025221;28;20109;-70
2023/04/27 03:39:59;;;;;;;0.40;0.40;;;;;;;4.30;57.71;99920.75;5025876;28;20026;-71
2023/04/27 03:42:25;;;;;;;0.50;0.50;;;;;;;4.26;57.78;99921.59;5025983;28;20026;-69
2023/04/27 03:44:50;;;;;;;0.40;0.40;;;;;;;4.27;57.79;99925.88;5026008;28;20057;-70
2023/04/27 03:47:16;;;;;;;0.40;0.40;;;;;;;4.25;57.62;99925.03;5025723;28;20033;-69
2023/04/27 03:49:41;;;;;;;0.50;0.50;;;;;;;4.33;57.61;99925.94;5026363;28;20022;-69
2023/04/27 03:52:06;;;;;;;0.40;0.40;;;;;;;4.35;57.51;99921.69;5025908;28;20041;-70
2023/04/27 03:54:32;;;;;;;0.40;0.40;;;;;;;4.41;57.46;99928.59;5025738;28;20365;-70
2023/04/27 03:56:57;;;;;;;0.47;0.47;;;;;;;4.44;57.26;99929.47;5025837;28;20449;-70
2023/04/27 03:59:23;;;;;;;0.45;0.45;;;;;;;4.49;57.28;99928.66;5024863;28;20083;-70
2023/04/27 04:01:48;;;;;;;0.50;0.50;;;;;;;4.56;57.01;99925.28;5024654;28;20025;-70
2023/04/27 04:04:13;;;;;;;0.50;0.50;;;;;;;4.70;57.00;99931.41;5023839;28;20116;-75
2023/04/27 04:06:39;;;;;;;0.50;0.50;;;;;;;4.81;56.98;99933.19;5025732;28;20022;-70
2023/04/27 04:09:04;;;;;;;0.50;0.50;;;;;;;4.83;56.96;99932.38;5024105;28;20032;-71
2023/04/27 04:11:30;;;;;;;0.50;0.50;;;;;;;4.91;56.87;99927.28;5025733;28;20088;-70
2023/04/27 04:13:55;;;;;;;0.50;0.50;;;;;;;5.03;56.85;99944.50;5025544;28;20025;-72
2023/04/27 04:16:21;;;;;;;0.50;0.50;;;;;;;5.16;56.79;99936.88;5025482;28;20022;-70
2023/04/27 04:18:46;;;;;;;0.40;0.40;;;;;;;5.55;57.18;99944.81;5025628;28;20018;-71
2023/04/27 04:21:11;;;;;;;0.40;0.40;;;;;;;5.85;56.04;99944.94;5024082;28;20449;-71
2023/04/27 04:23:37;;;;;;;0.40;0.40;;;;;;;6.20;55.34;99933.88;5025202;28;20018;-71
2023/04/27 04:26:03;;;;;;;0.40;0.40;;;;;;;6.52;55.12;99937.34;5025569;28;20029;-71
2023/04/27 04:28:29;;;;;;;0.43;0.43;;;;;;;6.96;53.73;99938.22;5024072;28;20057;-71
2023/04/27 04:30:55;;;;;;;0.40;0.40;;;;;;;7.37;52.64;99932.97;5025145;28;20026;-70
2023/04/27 04:33:21;;;;;;;0.50;0.50;;;;;;;7.44;52.25;99940.69;5025292;28;20026;-70
2023/04/27 04:35:46;;;;;;;0.40;0.40;;;;;;;7.37;52.42;99946.75;5025069;28;20108;-70
2023/04/27 04:38:12;;;;;;;0.40;0.40;;;;;;;7.37;51.92;99944.19;5024397;28;20017;-70
2023/04/27 04:40:38;;;;;;;0.30;0.30;;;;;;;7.24;51.57;99937.31;5023120;28;20026;-70
2023/04/27 04:43:03;;;;;;;1.20;1.15;;;;;;;7.26;51.28;99940.75;5025208;28;20108;-69
2023/04/27 04:45:29;;;;;;;0.50;0.50;;;;;;;7.44;50.27;99943.28;5023910;28;20509;-69
2023/04/27 04:47:55;;;;;;;0.40;0.40;;;;;;;7.81;49.83;99951.78;5025880;28;20076;-71
2023/04/27 04:50:21;;;;;;;0.40;0.40;;;;;;;8.29;49.79;99948.09;5031688;28;20022;-67
2023/04/27 04:52:46;;;;;;;0.40;0.40;;;;;;;8.59;49.41;99948.78;5031515;28;20021;-67
2023/04/27 04:55:11;;;;;;;0.40;0.40;;;;;;;8.87;47.81;99945.94;5030409;28;20037;-67
2023/04/27 04:57:37;;;;;;;0.40;0.40;;;;;;;9.13;47.01;99956.94;5031721;28;20029;-67
2023/04/27 05:00:11;;;;;;;0.40;0.40;;;;;;;9.63;47.04;99952.06;5031592;28;20024;-67
2023/04/27 05:02:36;;;;;;;0.40;0.40;;;;;;;10.05;47.87;99950.69;5031606;28;20082;-65
2023/04/27 05:05:02;;;;;;;0.40;0.40;;;;;;;10.61;45.75;99947.31;5031535;28;20033;-66
2023/04/27 05:07:27;;;;;;;0.40;0.40;;;;;;;10.94;42.96;99953.72;5030422;28;20029;-67
2023/04/27 05:09:53;;;;;;;0.35;0.35;;;;;;;10.79;43.70;99960.88;5031194;28;20030;-66
2023/04/27 05:12:18;;;;;;;0.40;0.40;;;;;;;10.40;42.04;99954.53;5031252;28;20113;-65
2023/04/27 05:14:43;;;;;;;0.30;0.30;;;;;;;10.17;43.10;99957.47;5030567;28;20034;-66
2023/04/27 05:17:09;;;;;;;0.40;0.40;;;;;;;10.12;43.56;99956.66;5031190;28;20030;-66
2023/04/27 05:19:34;;;;;;;0.35;0.35;;;;;;;9.88;43.21;99964.75;5031374;28;20060;-65
2023/04/27 05:22:00;;;;;;;0.40;0.40;;;;;;;9.69;43.94;99966.72;5031072;28;20032;-65
2023/04/27 05:24:25;;;;;;;0.40;0.40;;;;;;;9.57;43.29;99964.25;5031252;28;20025;-66
2023/04/27 05:26:51;;;;;;;0.40;0.40;;;;;;;9.21;43.93;99970.69;5031274;28;20470;-66
2023/04/27 05:29:16;;;;;;;0.40;0.40;;;;;;;9.53;45.31;99966.03;5031396;28;20036;-67
2023/04/27 05:31:42;;;;;;;0.40;0.40;;;;;;;9.64;43.78;99974.53;5030375;28;20028;-67
2023/04/27 05:34:08;;;;;;;2.15;1.95;;;;;;;9.46;43.34;99969.53;5030047;28;20028;-66
2023/04/27 05:36:34;;;;;;;0.40;0.40;;;;;;;9.22;44.00;99966.34;5031440;28;20048;-66
2023/04/27 05:39:00;;;;;;;0.40;0.40;;;;;;;9.29;44.69;99973.19;5029762;28;20399;-66
2023/04/27 05:41:26;;;;;;;0.40;0.40;;;;;;;9.14;43.58;99967.28;5031117;28;20045;-67
2023/04/27 05:43:52;;;;;;;0.40;0.40;;;;;;;8.74;43.39;99965.06;5029724;28;20032;-67
2023/04/27 05:46:17;;;;;;;0.40;0.40;;;;;;;8.39;43.92;99970.44;5029363;28;20531;-66
2023/04/27 05:48:43;;;;;;;0.38;0.38;;;;;;;8.21;44.57;99973.97;5031076;28;20118;-66
2023/04/27 05:51:08;;;;;;;0.50;0.50;;;;;;;8.26;45.03;99971.38;5031130;28;20285;-66
2023/04/27 05:53:35;;;;;;;0.40;0.40;;;;;;;8.64;45.13;99972.88;5030860;28;20066;-66
2023/04/27 05:56:03;;;;;;;0.50;0.50;;;;;;;8.74;44.30;99978.00;5031325;28;20351;-65
2023/04/27 05:58:28;;;;;;;0.40;0.40;;;;;;;8.76;44.39;99974.50;5031233;28;20022;-67
2023/04/27 06:00:54;;;;;;;0.40;0.40;;;;;;;8.83;44.17;99972.75;5026853;28;20051;-67
2023/04/27 06:03:20;;;;;;;0.40;0.40;;;;;;;8.85;44.60;99972.72;5028241;28;20042;-68
2023/04/27 06:05:45;;;;;;;18.30;6.03;;;;;;;8.86;44.22;99984.78;5028211;28;20105;-67
2023/04/27 06:08:11;;;;;;;0.50;0.50;;;;;;;8.70;44.58;99976.28;5028061;28;20048;-67
2023/04/27 06:10:37;;;;;;;0.40;0.40;;;;;;;8.69;45.02;99985.75;5027880;28;20022;-66
2023/04/27 06:13:03;;;;;;;0.40;0.40;;;;;;;8.63;44.77;99971.16;5028136;28;20033;-66
2023/04/27 06:15:29;;;;;;;0.50;0.50;;;;;;;8.88;44.91;99986.47;5026557;28;20025;-66
2023/04/27 06:17:55;;;;;;;0.40;0.40;;;;;;;8.82;44.29;99985.69;5028247;28;20026;-67
2023/04/27 06:20:20;;;;;;;0.40;0.40;;;;;;;8.66;44.72;99989.25;5027593;28;20113;-66
2023/04/27 06:22:46;;;;;;;0.40;0.40;;;;;;;8.70;44.51;99991.81;5027906;28;20089;-66
2023/04/27 06:25:11;;;;;;;0.40;0.40;;;;;;;8.62;44.86;99984.97;5027619;28;20370;-65
2023/04/27 06:27:37;;;;;;;0.40;0.40;;;;;;;8.66;45.00;99999.59;5027657;28;20026;-67
2023/04/27 06:30:03;;;;;;;0.40;0.40;;;;;;;8.62;44.63;99994.47;5027640;28;20025;-67
2023/04/27 06:32:29;;;;;;;0.40;0.40;;;;;;;8.42;44.91;99993.69;5026126;28;20029;-65
2023/04/27 06:34:55;;;;;;;0.40;0.40;;;;;;;8.36;44.97;100004.06;5027554;28;20026;-68
2023/04/27 06:37:20;;;;;;;0.50;0.50;;;;;;;8.05;45.09;99994.75;5027486;28;20022;-65
2023/04/27 06:39:46;;;;;;;0.40;0.40;;;;;;;7.86;45.68;99993.13;5027193;28;20080;-66
2023/04/27 06:42:11;;;;;;;0.40;0.40;;;;;;;7.92;46.28;100006.84;5027371;28;20022;-66
2023/04/27 06:44:37;;;;;;;0.50;0.50;;;;;;;8.33;45.91;99998.03;5027488;28;20044;-66
2023/04/27 06:47:03;;;;;;;0.40;0.40;;;;;;;8.37;45.39;100000.59;5027303;28;20037;-66
2023/04/27 06:49:28;;;;;;;0.45;0.45;;;;;;;8.27;45.55;99993.78;5027246;28;20045;-66
2023/04/27 06:51:54;;;;;;;0.40;0.40;;;;;;;8.19;45.82;100002.41;5027370;28;20038;-66
2023/04/27 06:54:20;;;;;;;0.40;0.40;;;;;;;8.19;45.90;100007.59;5027050;28;20026;-66
2023/04/27 06:56:45;;;;;;;0.50;0.50;;;;;;;8.04;46.09;100007.69;5027288;28;20026;-66
2023/04/27 06:59:11;;;;;;;0.40;0.40;;;;;;;7.86;46.27;100009.47;5025865;28;20021;-66
2023/04/27 07:01:36;;;;;;;0.40;0.40;;;;;;;7.85;47.26;100007.75;5042037;28;20057;-67
2023/04/27 07:04:03;;;;;;;0.40;0.40;;;;;;;8.71;47.70;100006.47;5027020;28;20110;-67
2023/04/27 07:06:28;;;;;;;0.40;0.40;;;;;;;9.63;46.54;100001.31;5027206;28;20021;-67
2023/04/27 07:08:54;;;;;;;0.40;0.40;;;;;;;10.88;46.70;99999.69;5026851;28;20382;-67
2023/04/27 07:11:20;;;;;;;0.40;0.40;;;;;;;11.70;43.92;100003.44;5026819;28;20045;-67
2023/04/27 07:13:46;;;;;;;0.40;0.40;;;;;;;12.13;41.90;100013.00;5027208;28;20029;-67
2023/04/27 07:16:11;;;;;;;0.40;0.40;;;;;;;11.81;41.78;100018.81;5025555;28;20029;-66
2023/04/27 07:18:37;;;;;;;0.30;0.30;;;;;;;11.45;40.28;100024.72;5025623;28;20029;-67
2023/04/27 07:21:02;;;;;;;0.40;0.40;;;;;;;11.00;40.07;100023.75;5025092;28;20030;-66
2023/04/27 07:23:28;;;;;;;0.40;0.40;;;;;;;10.77;41.05;100024.94;5026537;28;20054;-66
2023/04/27 07:25:53;;;;;;;0.93;0.93;;;;;;;11.07;41.53;100021.91;5026587;28;20241;-68
2023/04/27 07:28:19;;;;;;;0.40;0.40;;;;;;;10.93;40.05;100029.94;5025426;28;20102;-67
2023/04/27 07:30:44;;;;;;;0.40;0.40;;;;;;;10.59;40.63;100032.13;5025386;28;20026;-66
2023/04/27 07:33:10;;;;;;;0.40;0.40;;;;;;;10.43;41.90;100041.00;5025068;28;20025;-66
2023/04/27 07:35:36;;;;;;;0.40;0.40;;;;;;;10.75;41.72;100037.13;5026719;28;20036;-67
2023/04/27 07:38:01;;;;;;;0.40;0.40;;;;;;;11.61;40.73;100035.69;5026333;28;20540;-67
2023/04/27 07:40:28;;;;;;;0.40;0.40;;;;;;;12.46;39.01;100040.09;5026180;28;20037;-67
2023/04/27 07:42:54;;;;;;;0.40;0.40;;;;;;;12.86;38.36;100027.91;5026352;28;20049;-68
2023/04/27 07:45:20;;;;;;;0.40;0.40;;;;;;;13.27;36.88;100027.75;5026377;28;20129;-68
2023/04/27 07:47:46;;;;;;;0.70;0.70;;;;;;;13.05;35.69;100028.28;5026203;28;20041;-68
2023/04/27 07:50:17;;;;;;;0.30;0.30;;;;;;;12.69;35.58;100044.75;5026325;28;20030;-68
2023/04/27 07:52:43;;;;;;;0.40;0.40;;;;;;;12.26;37.23;100054.38;5026293;28;20022;-67
2023/04/27 07:55:08;;;;;;;4.88;2.65;;;;;;;12.13;37.35;100058.97;5026067;28;20500;-67
2023/04/27 07:57:34;;;;;;;0.40;0.40;;;;;;;11.95;36.99;100063.63;5026295;28;20029;-67
2023/04/27 08:00:00;;;;;;;0.40;0.40;;;;;;;11.66;36.47;100054.66;5025606;28;20049;-67
2023/04/27 08:02:29;;;;;;;0.40;0.40;;;;;;;11.13;37.07;100059.00;5025542;28;20091;-67
2023/04/27 08:04:54;;;;;;;0.40;0.40;;;;;;;10.79;37.76;100062.16;5026087;28;20057;-66
2023/04/27 08:07:20;;;;;;;0.40;0.40;;;;;;;10.81;38.42;100055.19;5025814;28;20032;-67
2023/04/27 08:09:45;;;;;;;0.40;0.40;;;;;;;11.12;38.75;100052.09;5025205;28;20021;-66
2023/04/27 08:12:11;;;;;;;0.40;0.40;;;;;;;11.78;37.32;100071.78;5025495;28;20025;-67
2023/04/27 08:14:36;;;;;;;0.40;0.40;;;;;;;12.36;37.54;100075.88;5025882;28;20063;-66
2023/04/27 08:17:01;;;;;;;0.40;0.40;;;;;;;13.35;36.18;100080.56;5025454;28;20026;-68
2023/04/27 08:19:27;;;;;;;0.30;0.30;;;;;;;13.90;35.12;100078.31;5025702;28;20085;-68
2023/04/27 08:21:52;;;;;;;0.30;0.30;;;;;;;14.46;34.06;100074.94;5025202;28;20018;-68
2023/04/27 08:24:19;;;;;;;0.30;0.30;;;;;;;15.24;32.26;100058.59;5024713;28;20028;-69
2023/04/27 08:26:45;;;;;;;0.30;0.30;;;;;;;15.59;31.67;100077.47;5025720;28;20085;-68
2023/04/27 08:29:10;;;;;;;0.30;0.30;;;;;;;15.76;30.88;100073.44;5025617;28;20053;-69
2023/04/27 08:31:36;;;;;;;0.30;0.30;;;;;;;16.37;31.28;100080.88;5025553;28;20037;-67
2023/04/27 08:34:01;;;;;;;0.30;0.30;;;;;;;16.79;30.83;100081.91;5025283;28;20041;-67
2023/04/27 08:36:27;;;;;;;0.30;0.30;;;;;;;17.25;29.40;100084.47;5025206;28;20021;-68
2023/04/27 08:38:53;;;;;;;0.30;0.30;;;;;;;17.28;29.34;100078.22;5024370;28;20033;-68
2023/04/27 08:41:22;;;;;;;1.35;1.27;;;;;;;17.21;28.96;100088.97;5023997;28;20022;-69
2023/04/27 08:43:52;;;;;;;0.30;0.30;;;;;;;17.17;28.89;100086.53;5025269;28;20257;-67
2023/04/27 08:46:19;;;;;;;0.30;0.30;;;;;;;16.98;29.14;100087.25;5025800;28;20053;-68
2023/04/27 08:48:45;;;;;;;0.30;0.30;;;;;;;16.71;29.62;100100.53;5025259;28;20057;-68
2023/04/27 08:51:14;;;;;;;0.30;0.30;;;;;;;16.80;28.59;100087.09;5025279;28;20404;-67
2023/04/27 08:53:47;;;;;;;0.30;0.30;;;;;;;17.11;27.62;100098.13;5025596;28;20026;-68
2023/04/27 08:56:13;;;;;;;0.30;0.30;;;;;;;17.33;27.59;100094.63;5025441;28;20109;-68
2023/04/27 08:58:38;;;;;;;0.30;0.30;;;;;;;17.32;27.94;100101.63;5025250;28;20425;-67
2023/04/27 09:01:08;;;;;;;0.22;0.22;;;;;;;17.60;28.61;100099.63;5025140;28;20030;-66
2023/04/27 09:03:34;;;;;;;0.30;0.30;;;;;;;17.86;27.63;100102.03;5025278;28;20089;-67
2023/04/27 09:06:01;;;;;;;0.30;0.30;;;;;;;18.01;27.14;100101.34;5025388;28;20026;-67
2023/04/27 09:08:27;;;;;;;0.20;0.20;;;;;;;17.75;28.72;100108.59;5025302;28;20018;-67
2023/04/27 09:10:54;;;;;;;0.30;0.30;;;;;;;17.50;27.97;100107.03;5025007;28;20022;-67
2023/04/27 09:13:19;;;;;;;0.28;0.28;;;;;;;17.55;28.77;100101.59;5023801;28;20024;-67
2023/04/27 09:15:47;;;;;;;0.20;0.20;;;;;;;17.64;28.65;100100.31;5023148;28;20046;-67
2023/04/27 09:18:16;;;;;;;0.30;0.30;;;;;;;17.84;27.99;100104.72;5025312;28;20025;-67
2023/04/27 09:20:47;;;;;;;0.45;0.45;;;;;;;18.09;28.33;100107.13;5025136;28;20018;-68
2023/04/27 09:23:26;;;;;;;1.00;1.00;;;;;;;18.17;27.47;100119.94;5025116;28;20026;-67
2023/04/27 09:25:53;;;;;;;0.77;0.77;;;;;;;17.54;27.56;100120.88;5025147;28;20069;-67
2023/04/27 09:28:19;;;;;;;0.20;0.20;;;;;;;16.95;27.48;100127.56;5025148;28;20029;-67
2023/04/27 09:30:56;;;;;;;0.30;0.30;;;;;;;16.14;28.41;100127.09;5023965;28;20021;-66
2023/04/27 09:33:26;;;;;;;0.30;0.30;;;;;;;15.73;29.17;100118.88;5024888;28;20105;-66
2023/04/27 09:35:53;;;;;;;0.20;0.20;;;;;;;14.96;29.94;100130.97;5026210;28;20022;-68
2023/04/27 09:38:20;;;;;;;0.30;0.30;;;;;;;14.49;30.86;100128.84;5028950;28;20051;-67
2023/04/27 09:40:45;;;;;;;0.30;0.30;;;;;;;15.24;31.08;100132.69;5028527;28;20029;-67
2023/04/27 09:43:11;;;;;;;0.20;0.20;;;;;;;15.98;30.12;100128.53;5028713;28;20037;-67
2023/04/27 09:45:37;;;;;;;0.30;0.30;;;;;;;16.23;29.95;100132.00;5028615;28;20017;-67
2023/04/27 09:48:06;;;;;;;0.30;0.30;;;;;;;15.64;29.30;100134.06;5028439;28;20092;-67
2023/04/27 09:50:36;;;;;;;0.30;0.30;;;;;;;15.30;30.06;100136.03;5028402;28;20030;-68
2023/04/27 09:53:05;;;;;;;3.90;0.77;;;;;;;15.67;29.23;100128.72;5028789;28;20053;-68
2023/04/27 09:55:41;;;;;;;0.30;0.30;;;;;;;16.63;28.98;100147.16;5028178;28;20037;-68
2023/04/27 09:58:32;;;;;;;0.20;0.20;;;;;;;16.82;28.03;100139.44;5028303;28;20385;-67
2023/04/27 10:01:28;;;;;;;0.30;0.30;;;;;;;15.74;28.38;100140.66;5026743;28;20025;-68
2023/04/27 10:04:23;;;;;;;0.25;0.25;;;;;;;15.60;28.87;100154.22;5027690;28;20030;-68
2023/04/27 10:07:00;;;;;;;0.30;0.30;;;;;;;15.23;29.49;100153.66;5026822;28;20040;-67
2023/04/27 10:09:40;;;;;;;0.30;0.30;;;;;;;14.54;29.90;100152.22;5028134;28;20053;-68
2023/04/27 10:12:37;;;;;;;0.73;0.73;;;;;;;15.07;30.11;100168.97;5028163;28;20036;-68
2023/04/27 10:15:16;;;;;;;0.30;0.30;;;;;;;15.80;28.30;100145.69;5027972;28;20030;-68
2023/04/27 10:17:49;;;;;;;0.30;0.30;;;;;;;15.52;29.43;100151.00;5028090;28;20032;-68
2023/04/27 10:20:15;;;;;;;0.30;0.30;;;;;;;16.72;28.34;100155.50;5026649;28;20469;-68
2023/04/27 10:22:47;;;;;;;0.50;0.50;;;;;;;16.26;27.68;100160.72;5027961;28;20099;-68
2023/04/27 10:25:18;;;;;;;0.30;0.30;;;;;;;15.33;28.79;100168.19;5027783;28;20434;-68
2023/04/27 10:27:52;;;;;;;0.40;0.40;;;;;;;14.54;29.59;100167.88;5027918;28;20030;-69
2023/04/27 10:30:19;;;;;;;0.45;0.45;;;;;;;14.87;30.05;100165.25;5026381;28;20093;-69
2023/04/27 10:32:56;;;;;;;0.20;0.20;;;;;;;15.78;29.71;100168.47;5027810;28;20033;-68
2023/04/27 10:35:33;;;;;;;1.02;1.02;;;;;;;16.63;28.11;100150.63;5027603;28;20030;-69
2023/04/27 10:38:09;;;;;;;0.28;0.28;;;;;;;15.86;27.94;100168.19;5027696;28;20037;-69
2023/04/27 10:40:36;;;;;;;0.30;0.30;;;;;;;14.84;28.87;100170.56;5026561;28;20099;-67
2023/04/27 10:43:09;;;;;;;0.20;0.20;;;;;;;13.57;29.99;100179.13;5027412;28;20025;-67
2023/04/27 10:45:34;;;;;;;0.30;0.30;;;;;;;12.75;31.46;100182.66;5026777;28;20192;-67
2023/04/27 10:48:00;;;;;;;0.30;0.30;;;;;;;12.27;32.33;100188.81;5027306;28;20494;-67
2023/04/27 10:50:26;;;;;;;0.30;0.30;;;;;;;12.01;32.85;100185.78;5026050;28;20057;-67
2023/04/27 10:52:52;;;;;;;0.40;0.40;;;;;;;12.47;33.33;100183.25;5027344;28;20022;-68
2023/04/27 10:55:21;;;;;;;0.30;0.30;;;;;;;13.54;32.88;100181.81;5027169;28;20413;-68
2023/04/27 10:57:50;;;;;;;0.30;0.30;;;;;;;14.26;31.10;100185.22;5027153;28;20036;-68
2023/04/27 11:00:26;;;;;;;0.30;0.30;;;;;;;13.74;31.04;100188.28;5027312;28;20032;-67
2023/04/27 11:02:53;;;;;;;0.30;0.30;;;;;;;13.60;30.86;100192.09;5025703;28;20038;-69
2023/04/27 11:05:21;;;;;;;0.30;0.30;;;;;;;13.88;31.08;100191.41;5027116;28;20025;-67
2023/04/27 11:07:47;;;;;;;0.35;0.35;;;;;;;14.80;29.55;100190.69;5026954;28;20030;-67
2023/04/27 11:10:17;;;;;;;0.30;0.30;;;;;;;15.21;28.62;100184.22;5026794;28;20029;-68
2023/04/27 11:12:44;;;;;;;0.30;0.30;;;;;;;15.06;29.49;100191.69;5026776;28;20022;-67
2023/04/27 11:15:10;;;;;;;0.22;0.22;;;;;;;15.62;28.47;100175.97;5026995;28;20026;-68
2023/04/27 11:17:36;;;;;;;0.20;0.20;;;;;;;15.17;28.12;100195.69;5026759;28;20033;-67
2023/04/27 11:20:04;;;;;;;0.38;0.38;;;;;;;15.25;28.08;100206.78;5026671;28;20021;-67
2023/04/27 11:22:29;;;;;;;0.30;0.30;;;;;;;15.26;28.39;100195.41;5026726;28;20045;-67
2023/04/27 11:24:55;;;;;;;0.30;0.30;;;;;;;14.61;29.16;100203.41;5025591;28;20037;-68
2023/04/27 11:27:22;;;;;;;1.38;1.20;;;;;;;13.96;30.23;100206.03;5025693;28;20028;-67
2023/04/27 11:29:48;;;;;;;0.30;0.30;;;;;;;13.22;31.37;100204.25;5024071;28;20032;-67
2023/04/27 11:32:21;;;;;;;0.30;0.30;;;;;;;12.82;31.68;100216.41;5024909;28;20014;-67